sensor_id;sensor_type;location;lat;lon;timestamp;pressure;altitude;pressure_sealevel;temperature;humidity
28628;BME280;15815;46.760;19.604;2024-02-21T00:00:21;101121.19;;;8.20;84.28
28628;BME280;15815;46.760;19.604;2024-02-21T00:02:47;101131.50;;;8.16;84.54
28628;BME280;15815;46.760;19.604;2024-02-21T00:05:12;101121.84;;;8.13;84.21
28628;BME280;15815;46.760;19.604;2024-02-21T00:07:45;101129.22;;;8.02;83.86
28628;BME280;15815;46.760;19.604;2024-02-21T00:10:11;101136.75;;;7.98;84.66
28628;BME280;15815;46.760;19.604;2024-02-21T00:12:36;101129.41;;;7.93;84.46
28628;BME280;15815;46.760;19.604;2024-02-21T00:15:18;101117.34;;;7.89;84.71
28628;BME280;15815;46.760;19.604;2024-02-21T00:17:44;101130.22;;;7.94;84.71
28628;BME280;15815;46.760;19.604;2024-02-21T00:20:10;101132.50;;;7.88;84.54
28628;BME280;15815;46.760;19.604;2024-02-21T00:22:44;101130.00;;;7.83;84.79
28628;BME280;15815;46.760;19.604;2024-02-21T00:25:10;101124.03;;;7.85;84.36
28628;BME280;15815;46.760;19.604;2024-02-21T00:27:35;101124.34;;;7.80;84.39
28628;BME280;15815;46.760;19.604;2024-02-21T00:30:16;101129.13;;;7.79;83.91
28628;BME280;15815;46.760;19.604;2024-02-21T00:32:42;101121.81;;;7.74;84.41
28628;BME280;15815;46.760;19.604;2024-02-21T00:35:08;101132.03;;;7.67;84.83
28628;BME280;15815;46.760;19.604;2024-02-21T00:37:38;101119.59;;;7.64;84.92
28628;BME280;15815;46.760;19.604;2024-02-21T00:40:03;101108.53;;;7.52;85.55
28628;BME280;15815;46.760;19.604;2024-02-21T00:42:29;101096.44;;;7.48;84.86
28628;BME280;15815;46.760;19.604;2024-02-21T00:44:55;101102.66;;;7.57;85.25
28628;BME280;15815;46.760;19.604;2024-02-21T00:47:39;101111.03;;;7.57;84.86
28628;BME280;15815;46.760;19.604;2024-02-21T00:50:05;101103.38;;;7.54;84.93
28628;BME280;15815;46.760;19.604;2024-02-21T00:52:30;101122.06;;;7.50;85.03
28628;BME280;15815;46.760;19.604;2024-02-21T00:54:56;101111.31;;;7.52;85.31
28628;BME280;15815;46.760;19.604;2024-02-21T00:57:21;101114.50;;;7.51;84.98
28628;BME280;15815;46.760;19.604;2024-02-21T00:59:47;101107.19;;;7.46;85.07
28628;BME280;15815;46.760;19.604;2024-02-21T01:02:12;101084.47;;;7.32;85.48
28628;BME280;15815;46.760;19.604;2024-02-21T01:04:55;101093.94;;;7.43;85.42
28628;BME280;15815;46.760;19.604;2024-02-21T01:07:21;101102.94;;;7.52;84.82
28628;BME280;15815;46.760;19.604;2024-02-21T01:10:01;101091.13;;;7.43;85.05
28628;BME280;15815;46.760;19.604;2024-02-21T01:12:27;101106.09;;;7.51;85.12
28628;BME280;15815;46.760;19.604;2024-02-21T01:14:53;101094.97;;;7.54;85.20
28628;BME280;15815;46.760;19.604;2024-02-21T01:17:18;101087.31;;;7.51;84.87
28628;BME280;15815;46.760;19.604;2024-02-21T01:20:06;101101.63;;;7.65;84.39
28628;BME280;15815;46.760;19.604;2024-02-21T01:22:32;101090.56;;;7.53;84.70
28628;BME280;15815;46.760;19.604;2024-02-21T01:24:58;101082.91;;;7.50;85.21
28628;BME280;15815;46.760;19.604;2024-02-21T01:27:30;101093.44;;;7.57;85.09
28628;BME280;15815;46.760;19.604;2024-02-21T01:29:56;101088.28;;;7.59;84.64
28628;BME280;15815;46.760;19.604;2024-02-21T01:32:22;101079.44;;;7.57;84.71
28628;BME280;15815;46.760;19.604;2024-02-21T01:34:47;101081.34;;;7.53;85.11
28628;BME280;15815;46.760;19.604;2024-02-21T01:37:13;101093.88;;;7.59;84.60
28628;BME280;15815;46.760;19.604;2024-02-21T01:39:38;101085.50;;;7.59;84.55
28628;BME280;15815;46.760;19.604;2024-02-21T01:42:11;101083.56;;;7.63;84.21
28628;BME280;15815;46.760;19.604;2024-02-21T01:44:37;101077.38;;;7.54;84.38
28628;BME280;15815;46.760;19.604;2024-02-21T01:47:02;101070.84;;;7.46;84.76
28628;BME280;15815;46.760;19.604;2024-02-21T01:49:29;101083.72;;;7.51;84.67
28628;BME280;15815;46.760;19.604;2024-02-21T01:51:55;101080.41;;;7.45;84.62
28628;BME280;15815;46.760;19.604;2024-02-21T01:54:21;101092.84;;;7.48;85.04
28628;BME280;15815;46.760;19.604;2024-02-21T01:56:51;101087.16;;;7.44;85.21
28628;BME280;15815;46.760;19.604;2024-02-21T01:59:18;101080.19;;;7.54;84.89
28628;BME280;15815;46.760;19.604;2024-02-21T02:01:46;101074.06;;;7.48;85.15
28628;BME280;15815;46.760;19.604;2024-02-21T02:04:22;101067.66;;;7.48;85.29
28628;BME280;15815;46.760;19.604;2024-02-21T02:06:48;101076.66;;;7.57;85.04
28628;BME280;15815;46.760;19.604;2024-02-21T02:09:22;101079.81;;;7.55;85.50
28628;BME280;15815;46.760;19.604;2024-02-21T02:11:48;101065.31;;;7.50;85.22
28628;BME280;15815;46.760;19.604;2024-02-21T02:14:13;101078.34;;;7.61;85.26
28628;BME280;15815;46.760;19.604;2024-02-21T02:16:39;101076.44;;;7.65;84.41
28628;BME280;15815;46.760;19.604;2024-02-21T02:19:05;101055.50;;;7.40;84.75
28628;BME280;15815;46.760;19.604;2024-02-21T02:21:36;101074.22;;;7.55;85.16
28628;BME280;15815;46.760;19.604;2024-02-21T02:24:05;101073.50;;;7.58;84.80
28628;BME280;15815;46.760;19.604;2024-02-21T02:26:30;101078.13;;;7.51;84.41
28628;BME280;15815;46.760;19.604;2024-02-21T02:28:56;101076.66;;;7.57;84.66
28628;BME280;15815;46.760;19.604;2024-02-21T02:31:22;101076.66;;;7.57;84.68
28628;BME280;15815;46.760;19.604;2024-02-21T02:33:48;101075.47;;;7.58;84.42
28628;BME280;15815;46.760;19.604;2024-02-21T02:36:14;101071.72;;;7.50;84.42
28628;BME280;15815;46.760;19.604;2024-02-21T02:38:43;101074.50;;;7.50;84.37
28628;BME280;15815;46.760;19.604;2024-02-21T02:41:09;101061.56;;;7.42;83.81
28628;BME280;15815;46.760;19.604;2024-02-21T02:43:34;101057.13;;;7.41;84.45
28628;BME280;15815;46.760;19.604;2024-02-21T02:46:00;101066.41;;;7.45;84.08
28628;BME280;15815;46.760;19.604;2024-02-21T02:48:31;101067.66;;;7.48;83.77
28628;BME280;15815;46.760;19.604;2024-02-21T02:50:57;101083.56;;;7.43;83.78
28628;BME280;15815;46.760;19.604;2024-02-21T02:53:27;101066.22;;;7.38;83.10
28628;BME280;15815;46.760;19.604;2024-02-21T02:55:53;101061.38;;;7.35;83.52
28628;BME280;15815;46.760;19.604;2024-02-21T02:58:19;101072.56;;;7.35;82.92
28628;BME280;15815;46.760;19.604;2024-02-21T03:00:44;101077.16;;;7.43;83.14
28628;BME280;15815;46.760;19.604;2024-02-21T03:03:10;101056.88;;;7.30;83.05
28628;BME280;15815;46.760;19.604;2024-02-21T03:05:35;101072.41;;;7.28;83.21
28628;BME280;15815;46.760;19.604;2024-02-21T03:08:01;101069.16;;;7.26;83.51
28628;BME280;15815;46.760;19.604;2024-02-21T03:10:26;101077.25;;;7.31;83.58
28628;BME280;15815;46.760;19.604;2024-02-21T03:13:07;101059.31;;;7.32;83.39
28628;BME280;15815;46.760;19.604;2024-02-21T03:15:33;101060.75;;;7.26;83.50
28628;BME280;15815;46.760;19.604;2024-02-21T03:17:58;101067.25;;;7.30;84.15
28628;BME280;15815;46.760;19.604;2024-02-21T03:20:38;101047.59;;;7.26;83.81
28628;BME280;15815;46.760;19.604;2024-02-21T03:23:04;101063.63;;;7.29;83.64
28628;BME280;15815;46.760;19.604;2024-02-21T03:25:29;101071.38;;;7.36;83.72
28628;BME280;15815;46.760;19.604;2024-02-21T03:27:59;101065.41;;;7.37;83.58
28628;BME280;15815;46.760;19.604;2024-02-21T03:30:24;101057.41;;;7.36;83.61
28628;BME280;15815;46.760;19.604;2024-02-21T03:33:12;101067.59;;;7.44;83.72
28628;BME280;15815;46.760;19.604;2024-02-21T03:35:37;101047.00;;;7.36;83.73
28628;BME280;15815;46.760;19.604;2024-02-21T03:38:03;101067.31;;;7.49;83.70
28628;BME280;15815;46.760;19.604;2024-02-21T03:40:28;101078.13;;;7.51;83.89
28628;BME280;15815;46.760;19.604;2024-02-21T03:42:57;101066.19;;;7.54;83.84
28628;BME280;15815;46.760;19.604;2024-02-21T03:45:22;101055.75;;;7.51;83.98
28628;BME280;15815;46.760;19.604;2024-02-21T03:47:48;101049.81;;;7.36;83.30
28628;BME280;15815;46.760;19.604;2024-02-21T03:50:14;101045.75;;;7.34;84.00
28628;BME280;15815;46.760;19.604;2024-02-21T03:52:39;101075.69;;;7.49;84.23
28628;BME280;15815;46.760;19.604;2024-02-21T03:55:17;101049.91;;;7.40;83.29
28628;BME280;15815;46.760;19.604;2024-02-21T03:57:42;101072.53;;;7.51;83.71
28628;BME280;15815;46.760;19.604;2024-02-21T04:00:08;101066.13;;;7.50;83.71
28628;BME280;15815;46.760;19.604;2024-02-21T04:02:47;101076.50;;;7.50;84.00
28628;BME280;15815;46.760;19.604;2024-02-21T04:05:15;101080.19;;;7.54;83.59
28628;BME280;15815;46.760;19.604;2024-02-21T04:07:41;101066.13;;;7.50;84.07
28628;BME280;15815;46.760;19.604;2024-02-21T04:10:07;101066.41;;;7.45;84.17
28628;BME280;15815;46.760;19.604;2024-02-21T04:12:35;101064.50;;;7.49;84.49
28628;BME280;15815;46.760;19.604;2024-02-21T04:15:07;101049.56;;;7.41;84.11
28628;BME280;15815;46.760;19.604;2024-02-21T04:17:34;101049.44;;;7.38;83.77
28628;BME280;15815;46.760;19.604;2024-02-21T04:20:04;101064.16;;;7.35;84.85
28628;BME280;15815;46.760;19.604;2024-02-21T04:22:34;101067.25;;;7.30;84.53
28628;BME280;15815;46.760;19.604;2024-02-21T04:25:00;101066.50;;;7.33;84.46
28628;BME280;15815;46.760;19.604;2024-02-21T04:27:26;101062.97;;;7.36;84.80
28628;BME280;15815;46.760;19.604;2024-02-21T04:29:52;101065.78;;;7.36;84.66
28628;BME280;15815;46.760;19.604;2024-02-21T04:32:18;101056.94;;;7.34;84.92
28628;BME280;15815;46.760;19.604;2024-02-21T04:34:44;101064.91;;;7.32;84.70
28628;BME280;15815;46.760;19.604;2024-02-21T04:37:09;101064.44;;;7.30;84.76
28628;BME280;15815;46.760;19.604;2024-02-21T04:39:35;101065.63;;;7.29;84.71
28628;BME280;15815;46.760;19.604;2024-02-21T04:42:00;101046.19;;;7.17;84.07
28628;BME280;15815;46.760;19.604;2024-02-21T04:44:26;101056.47;;;7.12;83.93
28628;BME280;15815;46.760;19.604;2024-02-21T04:46:51;101067.66;;;7.12;84.13
28628;BME280;15815;46.760;19.604;2024-02-21T04:49:17;101068.47;;;7.13;84.08
28628;BME280;15815;46.760;19.604;2024-02-21T04:51:43;101069.91;;;7.07;84.05
28628;BME280;15815;46.760;19.604;2024-02-21T04:54:08;101067.00;;;7.03;83.76
28628;BME280;15815;46.760;19.604;2024-02-21T04:56:34;101045.75;;;6.83;83.76
28628;BME280;15815;46.760;19.604;2024-02-21T04:59:00;101060.19;;;6.85;84.26
28628;BME280;15815;46.760;19.604;2024-02-21T05:01:54;101068.31;;;6.90;84.07
28628;BME280;15815;46.760;19.604;2024-02-21T05:04:20;101062.06;;;6.81;84.59
28628;BME280;15815;46.760;19.604;2024-02-21T05:06:45;101063.59;;;6.78;84.07
28628;BME280;15815;46.760;19.604;2024-02-21T05:09:12;101060.72;;;6.75;83.94
28628;BME280;15815;46.760;19.604;2024-02-21T05:11:46;101063.44;;;6.71;84.32
28628;BME280;15815;46.760;19.604;2024-02-21T05:14:12;101061.63;;;6.63;84.94
28628;BME280;15815;46.760;19.604;2024-02-21T05:16:53;101068.41;;;6.62;85.49
28628;BME280;15815;46.760;19.604;2024-02-21T05:19:19;101064.34;;;6.60;85.29
28628;BME280;15815;46.760;19.604;2024-02-21T05:21:56;101068.03;;;6.64;85.29
28628;BME280;15815;46.760;19.604;2024-02-21T05:24:22;101065.84;;;6.57;85.42
28628;BME280;15815;46.760;19.604;2024-02-21T05:26:48;101063.78;;;6.54;85.78
28628;BME280;15815;46.760;19.604;2024-02-21T05:29:13;101060.06;;;6.50;86.38
28628;BME280;15815;46.760;19.604;2024-02-21T05:32:04;101068.31;;;6.59;85.80
28628;BME280;15815;46.760;19.604;2024-02-21T05:34:30;101067.13;;;6.60;85.44
28628;BME280;15815;46.760;19.604;2024-02-21T05:37:13;101083.91;;;6.60;85.64
28628;BME280;15815;46.760;19.604;2024-02-21T05:39:38;101065.03;;;6.57;85.82
28628;BME280;15815;46.760;19.604;2024-02-21T05:42:16;101066.31;;;6.59;85.51
28628;BME280;15815;46.760;19.604;2024-02-21T05:44:42;101075.06;;;6.58;85.61
28628;BME280;15815;46.760;19.604;2024-02-21T05:47:07;101072.34;;;6.61;85.58
28628;BME280;15815;46.760;19.604;2024-02-21T05:49:33;101075.75;;;6.55;85.79
28628;BME280;15815;46.760;19.604;2024-02-21T05:51:58;101079.56;;;6.62;85.43
28628;BME280;15815;46.760;19.604;2024-02-21T05:54:24;101077.66;;;6.66;85.33
28628;BME280;15815;46.760;19.604;2024-02-21T05:56:50;101081.19;;;6.63;85.39
28628;BME280;15815;46.760;19.604;2024-02-21T05:59:16;101080.91;;;6.68;84.88
28628;BME280;15815;46.760;19.604;2024-02-21T06:01:45;101079.00;;;6.57;85.25
28628;BME280;15815;46.760;19.604;2024-02-21T06:04:11;101086.94;;;6.55;85.50
28628;BME280;15815;46.760;19.604;2024-02-21T06:06:36;101082.28;;;6.59;85.15
28628;BME280;15815;46.760;19.604;2024-02-21T06:09:02;101075.13;;;6.45;85.59
28628;BME280;15815;46.760;19.604;2024-02-21T06:11:27;101082.59;;;6.57;85.72
28628;BME280;15815;46.760;19.604;2024-02-21T06:13:53;101064.84;;;6.49;85.71
28628;BME280;15815;46.760;19.604;2024-02-21T06:16:27;101073.66;;;7.30;83.34
28628;BME280;15815;46.760;19.604;2024-02-21T06:18:52;101069.91;;;7.96;82.91
28628;BME280;15815;46.760;19.604;2024-02-21T06:21:18;101079.72;;;8.67;82.80
28628;BME280;15815;46.760;19.604;2024-02-21T06:23:50;101082.81;;;9.08;83.24
28628;BME280;15815;46.760;19.604;2024-02-21T06:26:15;101081.69;;;9.66;82.37
28628;BME280;15815;46.760;19.604;2024-02-21T06:28:41;101077.34;;;10.35;80.62
28628;BME280;15815;46.760;19.604;2024-02-21T06:31:06;101088.44;;;10.99;81.63
28628;BME280;15815;46.760;19.604;2024-02-21T06:33:32;101089.34;;;11.72;77.49
28628;BME280;15815;46.760;19.604;2024-02-21T06:35:57;101083.66;;;12.41;85.95
28628;BME280;15815;46.760;19.604;2024-02-21T06:38:23;101071.63;;;12.76;76.93
28628;BME280;15815;46.760;19.604;2024-02-21T06:40:49;101058.72;;;13.36;85.50
28628;BME280;15815;46.760;19.604;2024-02-21T06:43:20;101093.41;;;13.50;85.57
28628;BME280;15815;46.760;19.604;2024-02-21T06:45:46;101101.31;;;14.09;85.09
28628;BME280;15815;46.760;19.604;2024-02-21T06:48:12;101079.72;;;14.50;78.54
28628;BME280;15815;46.760;19.604;2024-02-21T06:50:37;101101.81;;;15.29;85.51
28628;BME280;15815;46.760;19.604;2024-02-21T06:53:03;101075.84;;;15.79;81.76
28628;BME280;15815;46.760;19.604;2024-02-21T06:55:29;101105.59;;;16.62;82.75
28628;BME280;15815;46.760;19.604;2024-02-21T06:57:56;101075.94;;;16.66;80.76
28628;BME280;15815;46.760;19.604;2024-02-21T07:00:22;101094.50;;;16.98;77.39
28628;BME280;15815;46.760;19.604;2024-02-21T07:02:48;101119.09;;;17.58;83.53
28628;BME280;15815;46.760;19.604;2024-02-21T07:05:18;101129.09;;;18.30;81.80
28628;BME280;15815;46.760;19.604;2024-02-21T07:07:43;101109.91;;;18.34;71.10
28628;BME280;15815;46.760;19.604;2024-02-21T07:10:09;101135.91;;;18.92;72.83
28628;BME280;15815;46.760;19.604;2024-02-21T07:12:34;101126.97;;;18.90;71.36
28628;BME280;15815;46.760;19.604;2024-02-21T07:15:00;101108.84;;;19.16;75.39
28628;BME280;15815;46.760;19.604;2024-02-21T07:17:26;101124.16;;;19.87;71.28
28628;BME280;15815;46.760;19.604;2024-02-21T07:19:51;101127.13;;;20.54;66.09
28628;BME280;15815;46.760;19.604;2024-02-21T07:22:17;101104.56;;;21.11;70.96
28628;BME280;15815;46.760;19.604;2024-02-21T07:24:42;101134.13;;;20.79;56.31
28628;BME280;15815;46.760;19.604;2024-02-21T07:27:08;101134.16;;;21.42;64.37
28628;BME280;15815;46.760;19.604;2024-02-21T07:29:34;101139.53;;;21.87;68.33
28628;BME280;15815;46.760;19.604;2024-02-21T07:31:59;101132.19;;;21.01;54.61
28628;BME280;15815;46.760;19.604;2024-02-21T07:34:25;101123.47;;;21.90;61.24
28628;BME280;15815;46.760;19.604;2024-02-21T07:36:50;101108.16;;;21.84;61.40
28628;BME280;15815;46.760;19.604;2024-02-21T07:39:16;101141.25;;;22.41;60.59
28628;BME280;15815;46.760;19.604;2024-02-21T07:41:42;101126.72;;;22.58;57.99
28628;BME280;15815;46.760;19.604;2024-02-21T07:44:07;101113.53;;;22.82;52.15
28628;BME280;15815;46.760;19.604;2024-02-21T07:46:33;101138.53;;;23.22;53.30
28628;BME280;15815;46.760;19.604;2024-02-21T07:49:00;101128.97;;;23.25;51.42
28628;BME280;15815;46.760;19.604;2024-02-21T07:51:28;101142.31;;;23.09;46.59
28628;BME280;15815;46.760;19.604;2024-02-21T07:53:53;101125.13;;;23.68;50.10
28628;BME280;15815;46.760;19.604;2024-02-21T07:56:19;101136.75;;;23.73;44.10
28628;BME280;15815;46.760;19.604;2024-02-21T07:58:44;101132.53;;;22.98;44.60
28628;BME280;15815;46.760;19.604;2024-02-21T08:01:10;101132.81;;;23.98;43.81
28628;BME280;15815;46.760;19.604;2024-02-21T08:03:36;101131.69;;;24.05;41.53
28628;BME280;15815;46.760;19.604;2024-02-21T08:06:12;101126.44;;;24.40;41.48
28628;BME280;15815;46.760;19.604;2024-02-21T08:08:37;101116.69;;;24.98;40.07
28628;BME280;15815;46.760;19.604;2024-02-21T08:11:03;101108.53;;;24.96;36.84
28628;BME280;15815;46.760;19.604;2024-02-21T08:13:29;101095.41;;;25.62;39.36
28628;BME280;15815;46.760;19.604;2024-02-21T08:15:54;101113.84;;;25.55;37.27
28628;BME280;15815;46.760;19.604;2024-02-21T08:18:22;101129.94;;;25.62;36.40
28628;BME280;15815;46.760;19.604;2024-02-21T08:20:48;101117.25;;;25.44;34.69
28628;BME280;15815;46.760;19.604;2024-02-21T08:23:18;101090.38;;;25.23;33.42
28628;BME280;15815;46.760;19.604;2024-02-21T08:25:44;101122.41;;;25.64;35.62
28628;BME280;15815;46.760;19.604;2024-02-21T08:28:09;101115.94;;;25.78;33.22
28628;BME280;15815;46.760;19.604;2024-02-21T08:30:35;101096.06;;;26.19;33.42
28628;BME280;15815;46.760;19.604;2024-02-21T08:33:01;101095.50;;;25.91;31.66
28628;BME280;15815;46.760;19.604;2024-02-21T08:35:26;101118.63;;;26.21;32.90
28628;BME280;15815;46.760;19.604;2024-02-21T08:37:52;101103.66;;;26.46;32.98
28628;BME280;15815;46.760;19.604;2024-02-21T08:40:18;101126.81;;;26.96;31.62
28628;BME280;15815;46.760;19.604;2024-02-21T08:42:43;101113.00;;;26.41;31.64
28628;BME280;15815;46.760;19.604;2024-02-21T08:45:13;101128.06;;;27.24;30.32
28628;BME280;15815;46.760;19.604;2024-02-21T08:47:39;101125.03;;;26.84;29.34
28628;BME280;15815;46.760;19.604;2024-02-21T08:50:06;101111.25;;;26.58;31.82
28628;BME280;15815;46.760;19.604;2024-02-21T08:52:31;101116.97;;;27.02;30.83
28628;BME280;15815;46.760;19.604;2024-02-21T08:54:57;101117.59;;;27.42;29.46
28628;BME280;15815;46.760;19.604;2024-02-21T08:57:22;101117.91;;;27.64;30.76
28628;BME280;15815;46.760;19.604;2024-02-21T08:59:51;101111.50;;;27.75;29.64
28628;BME280;15815;46.760;19.604;2024-02-21T09:02:17;101103.16;;;28.02;29.21
28628;BME280;15815;46.760;19.604;2024-02-21T09:04:53;101089.09;;;27.14;29.17
28628;BME280;15815;46.760;19.604;2024-02-21T09:07:18;101117.56;;;26.33;29.21
28628;BME280;15815;46.760;19.604;2024-02-21T09:09:44;101120.78;;;26.64;29.84
28628;BME280;15815;46.760;19.604;2024-02-21T09:12:19;101112.56;;;27.77;28.05
28628;BME280;15815;46.760;19.604;2024-02-21T09:14:44;101125.44;;;27.96;27.94
28628;BME280;15815;46.760;19.604;2024-02-21T09:17:10;101114.13;;;27.58;27.27
28628;BME280;15815;46.760;19.604;2024-02-21T09:19:44;101122.06;;;26.78;27.51
28628;BME280;15815;46.760;19.604;2024-02-21T09:22:22;101120.34;;;27.16;28.15
28628;BME280;15815;46.760;19.604;2024-02-21T09:24:50;101091.06;;;27.23;27.92
28628;BME280;15815;46.760;19.604;2024-02-21T09:27:17;101122.09;;;27.83;26.25
28628;BME280;15815;46.760;19.604;2024-02-21T09:29:43;101112.63;;;28.49;27.50
28628;BME280;15815;46.760;19.604;2024-02-21T09:32:08;101110.03;;;28.51;27.40
28628;BME280;15815;46.760;19.604;2024-02-21T09:34:56;101126.84;;;28.79;25.39
28628;BME280;15815;46.760;19.604;2024-02-21T09:37:21;101103.63;;;29.42;25.95
28628;BME280;15815;46.760;19.604;2024-02-21T09:39:47;101094.81;;;29.62;25.49
28628;BME280;15815;46.760;19.604;2024-02-21T09:42:17;101140.38;;;29.62;25.60
28628;BME280;15815;46.760;19.604;2024-02-21T09:44:45;101133.25;;;27.55;26.67
28628;BME280;15815;46.760;19.604;2024-02-21T09:47:20;101134.41;;;26.10;26.15
28628;BME280;15815;46.760;19.604;2024-02-21T09:49:50;101135.13;;;25.24;26.74
28628;BME280;15815;46.760;19.604;2024-02-21T09:52:16;101101.44;;;26.11;27.56
28628;BME280;15815;46.760;19.604;2024-02-21T09:54:42;101108.75;;;27.30;27.39
28628;BME280;15815;46.760;19.604;2024-02-21T09:57:09;101109.84;;;26.68;27.48
28628;BME280;15815;46.760;19.604;2024-02-21T09:59:37;101112.38;;;25.60;26.92
28628;BME280;15815;46.760;19.604;2024-02-21T10:02:18;101124.03;;;24.11;28.12
28628;BME280;15815;46.760;19.604;2024-02-21T10:04:46;101128.31;;;22.59;29.39
28628;BME280;15815;46.760;19.604;2024-02-21T10:07:21;101088.72;;;22.66;29.39
28628;BME280;15815;46.760;19.604;2024-02-21T10:09:47;101104.56;;;23.60;30.51
28628;BME280;15815;46.760;19.604;2024-02-21T10:12:13;101075.16;;;23.38;30.91
28628;BME280;15815;46.760;19.604;2024-02-21T10:14:38;101118.28;;;23.65;29.51
28628;BME280;15815;46.760;19.604;2024-02-21T10:17:04;101100.16;;;24.75;29.03
28628;BME280;15815;46.760;19.604;2024-02-21T10:19:36;101082.09;;;25.64;28.45
28628;BME280;15815;46.760;19.604;2024-02-21T10:22:07;101079.16;;;26.27;27.04
28628;BME280;15815;46.760;19.604;2024-02-21T10:24:36;101113.34;;;24.90;27.46
28628;BME280;15815;46.760;19.604;2024-02-21T10:27:08;101085.50;;;23.44;28.40
28628;BME280;15815;46.760;19.604;2024-02-21T10:29:35;101096.66;;;22.31;31.18
28628;BME280;15815;46.760;19.604;2024-02-21T10:32:11;101094.25;;;22.08;30.94
28628;BME280;15815;46.760;19.604;2024-02-21T10:37:46;101085.75;;;23.59;29.97
28628;BME280;15815;46.760;19.604;2024-02-21T10:40:12;101088.69;;;24.56;29.69
28628;BME280;15815;46.760;19.604;2024-02-21T10:42:42;101082.41;;;23.61;28.69
28628;BME280;15815;46.760;19.604;2024-02-21T10:45:12;101074.91;;;25.21;29.13
28628;BME280;15815;46.760;19.604;2024-02-21T10:47:39;101066.84;;;26.26;29.84
28628;BME280;15815;46.760;19.604;2024-02-21T10:50:07;101035.44;;;26.72;28.31
28628;BME280;15815;46.760;19.604;2024-02-21T10:52:57;101070.66;;;27.47;25.81
28628;BME280;15815;46.760;19.604;2024-02-21T10:55:34;101065.19;;;27.89;26.95
28628;BME280;15815;46.760;19.604;2024-02-21T10:58:03;101069.25;;;26.87;26.89
28628;BME280;15815;46.760;19.604;2024-02-21T11:00:32;101071.97;;;27.66;28.54
28628;BME280;15815;46.760;19.604;2024-02-21T11:02:59;101052.69;;;28.24;27.39
28628;BME280;15815;46.760;19.604;2024-02-21T11:05:26;101034.06;;;28.25;26.14
28628;BME280;15815;46.760;19.604;2024-02-21T11:07:52;101042.72;;;28.51;24.37
28628;BME280;15815;46.760;19.604;2024-02-21T11:10:25;101027.88;;;28.38;26.48
28628;BME280;15815;46.760;19.604;2024-02-21T11:13:10;101025.97;;;28.60;25.44
28628;BME280;15815;46.760;19.604;2024-02-21T11:15:38;101018.69;;;28.39;25.02
28628;BME280;15815;46.760;19.604;2024-02-21T11:18:04;101036.56;;;28.75;26.38
28628;BME280;15815;46.760;19.604;2024-02-21T11:20:34;101008.66;;;28.66;24.96
28628;BME280;15815;46.760;19.604;2024-02-21T11:23:01;101034.41;;;28.33;25.85
28628;BME280;15815;46.760;19.604;2024-02-21T11:25:32;101027.19;;;27.96;26.00
28628;BME280;15815;46.760;19.604;2024-02-21T11:28:02;101015.97;;;26.67;25.77
28628;BME280;15815;46.760;19.604;2024-02-21T11:30:35;100996.13;;;26.10;25.48
28628;BME280;15815;46.760;19.604;2024-02-21T11:33:06;100994.31;;;24.13;26.90
28628;BME280;15815;46.760;19.604;2024-02-21T11:35:33;100997.03;;;23.25;27.65
28628;BME280;15815;46.760;19.604;2024-02-21T11:38:13;101014.47;;;23.58;27.77
28628;BME280;15815;46.760;19.604;2024-02-21T11:40:45;101001.28;;;22.84;28.90
28628;BME280;15815;46.760;19.604;2024-02-21T11:43:11;100981.75;;;21.76;30.35
28628;BME280;15815;46.760;19.604;2024-02-21T11:45:48;101010.06;;;21.62;30.46
28628;BME280;15815;46.760;19.604;2024-02-21T11:48:14;100980.91;;;21.32;30.76
28628;BME280;15815;46.760;19.604;2024-02-21T11:50:39;100963.59;;;22.63;30.73
28628;BME280;15815;46.760;19.604;2024-02-21T11:53:05;101010.13;;;23.44;30.07
28628;BME280;15815;46.760;19.604;2024-02-21T11:55:31;100969.97;;;23.81;29.80
28628;BME280;15815;46.760;19.604;2024-02-21T11:57:57;100961.34;;;23.81;29.84
28628;BME280;15815;46.760;19.604;2024-02-21T12:00:23;100968.63;;;22.99;29.02
28628;BME280;15815;46.760;19.604;2024-02-21T12:02:49;100969.53;;;22.38;30.72
28628;BME280;15815;46.760;19.604;2024-02-21T12:05:15;100961.44;;;21.83;31.39
28628;BME280;15815;46.760;19.604;2024-02-21T12:07:41;100995.28;;;21.41;31.23
28628;BME280;15815;46.760;19.604;2024-02-21T12:10:11;100974.38;;;21.32;30.44
28628;BME280;15815;46.760;19.604;2024-02-21T12:12:37;100970.19;;;21.23;31.42
28628;BME280;15815;46.760;19.604;2024-02-21T12:15:07;100947.06;;;21.74;30.42
28628;BME280;15815;46.760;19.604;2024-02-21T12:17:33;100972.34;;;21.19;31.65
28628;BME280;15815;46.760;19.604;2024-02-21T12:20:06;100966.69;;;22.07;30.89
28628;BME280;15815;46.760;19.604;2024-02-21T12:22:32;100946.78;;;22.34;31.12
28628;BME280;15815;46.760;19.604;2024-02-21T12:24:58;100945.34;;;22.30;31.26
28628;BME280;15815;46.760;19.604;2024-02-21T12:27:30;100965.09;;;22.37;30.80
28628;BME280;15815;46.760;19.604;2024-02-21T12:29:56;100966.72;;;21.28;32.37
28628;BME280;15815;46.760;19.604;2024-02-21T12:32:22;100955.75;;;21.27;33.21
28628;BME280;15815;46.760;19.604;2024-02-21T12:34:48;100934.66;;;20.64;33.24
28628;BME280;15815;46.760;19.604;2024-02-21T12:37:13;100936.84;;;20.95;33.57
28628;BME280;15815;46.760;19.604;2024-02-21T12:39:39;100950.97;;;21.24;32.84
28628;BME280;15815;46.760;19.604;2024-02-21T12:42:05;100965.97;;;21.50;32.70
28628;BME280;15815;46.760;19.604;2024-02-21T12:44:30;100913.28;;;21.04;33.34
28628;BME280;15815;46.760;19.604;2024-02-21T12:46:59;100904.28;;;20.45;34.17
28628;BME280;15815;46.760;19.604;2024-02-21T12:49:24;100906.94;;;19.60;34.42
28628;BME280;15815;46.760;19.604;2024-02-21T12:51:50;100904.72;;;20.05;34.44